RJOS(METAR)
02/20 20:00
METAR RJOS 201100Z 32015KT 9999 FEW030 BKN060 11/01 Q1020 RMK 1CU030
7SC060 A3014=
戻る
トップページへ戻る
IMOC Co,.Ltd.